Time;durP1;ratioP1;P1;durP2;ratioP2;P2;SDS_P1;SDS_P2;PMS_P1;PMS_P2;Temp;Humidity;BMP_temperature;BMP_pressure;BME280_temperature;BME280_humidity;BME280_pressure;Samples;Min_cycle;Max_cycle;Signal;HPM_P1;HPM_P2
2022/02/20 00:00:25;;;;;;;1.85;0.63;;;;;;;;;;5074675;28;20052;-43
2022/02/20 00:02:51;;;;;;;2.47;1.05;;;;;;;;;;5075678;28;20044;-43
2022/02/20 00:05:17;;;;;;;2.72;0.85;;;;;;;;;;5075790;28;20090;-44
2022/02/20 00:07:43;;;;;;;2.53;0.77;;;;;;;;;;5075814;28;20024;-43
2022/02/20 00:10:09;;;;;;;2.10;0.88;;;;;;;;;;5075921;28;20020;-44
2022/02/20 00:12:35;;;;;;;2.42;0.85;;;;;;;;;;5075651;28;20130;-43
2022/02/20 00:15:01;;;;;;;2.17;1.08;;;;;;;;;;5075591;28;20024;-43
2022/02/20 00:17:27;;;;;;;2.53;0.65;;;;;;;;;;5075661;28;20039;-43
2022/02/20 00:19:53;;;;;;;2.85;0.73;;;;;;;;;;5075623;28;20433;-43
2022/02/20 00:22:19;;;;;;;1.80;0.77;;;;;;;;;;5075543;28;20025;-43
2022/02/20 00:24:45;;;;;;;1.75;0.63;;;;;;;;;;5075515;28;20063;-43
2022/02/20 00:27:11;;;;;;;4.05;0.85;;;;;;;;;;5075452;28;20428;-43
2022/02/20 00:29:37;;;;;;;1.60;0.98;;;;;;;;;;5075407;28;20433;-43
2022/02/20 00:32:03;;;;;;;5.30;1.15;;;;;;;;;;5075385;28;20025;-43
2022/02/20 00:34:29;;;;;;;0.88;0.40;;;;;;;;;;5075567;28;20052;-43
2022/02/20 00:36:55;;;;;;;3.08;0.60;;;;;;;;;;5075287;28;20487;-43
2022/02/20 00:39:21;;;;;;;2.80;0.60;;;;;;;;;;5075234;28;20030;-44
2022/02/20 00:41:47;;;;;;;2.63;0.73;;;;;;;;;;5075400;28;20033;-43
2022/02/20 00:44:13;;;;;;;2.55;0.60;;;;;;;;;;5075116;28;20024;-44
2022/02/20 00:46:39;;;;;;;1.90;0.52;;;;;;;;;;5075033;28;20028;-43
2022/02/20 00:49:05;;;;;;;2.33;0.55;;;;;;;;;;5075038;28;20021;-43
2022/02/20 00:51:31;;;;;;;4.97;0.77;;;;;;;;;;5075052;28;20562;-44
2022/02/20 00:53:57;;;;;;;1.20;0.43;;;;;;;;;;5075074;28;20127;-43
2022/02/20 00:56:23;;;;;;;1.42;0.43;;;;;;;;;;5074864;28;20033;-44
2022/02/20 00:58:49;;;;;;;3.78;0.77;;;;;;;;;;5074931;28;20087;-43
2022/02/20 01:01:15;;;;;;;1.52;0.60;;;;;;;;;;5074929;28;20024;-43
2022/02/20 01:03:41;;;;;;;1.33;0.50;;;;;;;;;;5074578;28;20037;-44
2022/02/20 01:06:07;;;;;;;1.13;0.50;;;;;;;;;;5074848;28;20054;-43
2022/02/20 01:08:33;;;;;;;3.05;0.80;;;;;;;;;;5074708;28;20028;-43
2022/02/20 01:10:59;;;;;;;0.82;0.60;;;;;;;;;;5074161;28;20024;-44
2022/02/20 01:13:25;;;;;;;2.65;0.40;;;;;;;;;;5075009;28;20040;-43
2022/02/20 01:15:51;;;;;;;2.47;0.80;;;;;;;;;;5074499;28;20062;-43
2022/02/20 01:18:17;;;;;;;4.28;0.40;;;;;;;;;;5074561;28;20024;-43
2022/02/20 01:20:42;;;;;;;1.27;0.60;;;;;;;;;;5074462;28;20107;-43
2022/02/20 01:23:08;;;;;;;2.45;0.52;;;;;;;;;;5074423;28;20528;-44
2022/02/20 01:25:34;;;;;;;2.40;0.50;;;;;;;;;;5074624;28;20025;-44
2022/02/20 01:28:00;;;;;;;4.25;1.10;;;;;;;;;;5074383;28;20471;-43
2022/02/20 01:30:26;;;;;;;1.92;0.57;;;;;;;;;;5074283;28;20043;-44
2022/02/20 01:32:52;;;;;;;1.30;0.47;;;;;;;;;;5074327;28;20024;-43
2022/02/20 01:35:18;;;;;;;1.30;0.60;;;;;;;;;;5074132;28;20037;-44
2022/02/20 01:37:44;;;;;;;1.75;0.57;;;;;;;;;;5074146;28;20047;-44
2022/02/20 01:40:11;;;;;;;1.50;0.93;;;;;;;;;;5074134;28;20029;-44
2022/02/20 01:42:37;;;;;;;1.52;0.40;;;;;;;;;;5074061;28;20032;-43
2022/02/20 01:45:04;;;;;;;1.52;0.63;;;;;;;;;;5074113;28;20024;-43
2022/02/20 01:47:30;;;;;;;2.42;0.47;;;;;;;;;;5074307;28;20422;-44
2022/02/20 01:49:56;;;;;;;0.93;0.45;;;;;;;;;;5074029;28;20522;-43
2022/02/20 01:52:22;;;;;;;3.85;0.77;;;;;;;;;;5073950;28;20479;-43
2022/02/20 01:54:48;;;;;;;4.30;0.70;;;;;;;;;;5073876;28;20074;-44
2022/02/20 01:57:14;;;;;;;3.58;0.40;;;;;;;;;;5073786;28;20040;-43
2022/02/20 01:59:40;;;;;;;2.42;0.50;;;;;;;;;;5073702;28;20029;-43
2022/02/20 02:02:06;;;;;;;1.65;0.40;;;;;;;;;;5073612;28;20067;-43
2022/02/20 02:04:32;;;;;;;1.17;0.35;;;;;;;;;;5073653;28;20035;-44
2022/02/20 02:06:58;;;;;;;1.55;0.57;;;;;;;;;;5073593;28;20028;-43
2022/02/20 02:09:24;;;;;;;0.95;0.40;;;;;;;;;;5073611;28;20035;-43
2022/02/20 02:11:50;;;;;;;2.15;0.57;;;;;;;;;;5073451;28;20024;-43
2022/02/20 02:14:16;;;;;;;0.95;0.30;;;;;;;;;;5073362;28;20116;-43
2022/02/20 02:16:42;;;;;;;1.25;0.50;;;;;;;;;;5073235;28;20082;-43
2022/02/20 02:19:09;;;;;;;1.40;0.73;;;;;;;;;;5073344;28;20063;-43
2022/02/20 02:21:34;;;;;;;0.98;0.22;;;;;;;;;;5073134;28;20422;-43
2022/02/20 02:24:01;;;;;;;2.70;0.40;;;;;;;;;;5072871;28;20024;-44
2022/02/20 02:26:27;;;;;;;1.00;0.57;;;15.30;82.80;;;;;;5073391;28;20036;-43
2022/02/20 02:28:53;;;;;;;1.75;0.35;;;;;;;;;;5073180;28;20020;-45
2022/02/20 02:31:20;;;;;;;2.47;0.77;;;;;;;;;;5073101;28;20036;-43
2022/02/20 02:33:46;;;;;;;1.65;0.40;;;;;;;;;;5073366;28;20115;-43
2022/02/20 02:36:12;;;;;;;0.70;0.25;;;;;;;;;;5073007;28;20075;-44
2022/02/20 02:38:38;;;;;;;1.25;0.50;;;;;;;;;;5073016;28;20021;-44
2022/02/20 02:41:06;;;;;;;0.50;0.20;;;15.20;83.00;;;;;;5072869;28;20479;-43
2022/02/20 02:43:34;;;;;;;2.28;0.55;;;15.20;83.10;;;;;;5073134;28;20013;-43
2022/02/20 02:46:00;;;;;;;2.28;0.82;;;;;;;;;;5072944;28;20033;-44
2022/02/20 02:48:26;;;;;;;1.95;0.50;;;;;;;;;;5072889;28;20039;-44
2022/02/20 02:50:52;;;;;;;0.75;0.50;;;;;;;;;;5072944;28;20406;-44
2022/02/20 02:53:18;;;;;;;2.03;0.40;;;;;;;;;;5072723;28;20028;-44
2022/02/20 02:55:48;;;;;;;1.15;0.40;;;15.20;77.40;;;;;;5072611;28;20082;-44
2022/02/20 02:58:18;;;;;;;1.48;0.30;;;15.20;77.30;;;;;;5072733;28;20028;-44
2022/02/20 03:00:44;;;;;;;1.35;0.65;;;;;;;;;;5072683;28;20016;-43
2022/02/20 03:03:10;;;;;;;3.92;0.40;;;;;;;;;;5072309;28;20102;-43
2022/02/20 03:05:36;;;;;;;0.88;0.30;;;;;;;;;;5072580;28;20040;-43
2022/02/20 03:08:02;;;;;;;1.50;0.52;;;;;;;;;;5072519;28;20052;-43
2022/02/20 03:10:29;;;;;;;2.92;0.57;;;;;;;;;;5072492;28;20077;-43
2022/02/20 03:12:55;;;;;;;1.25;0.40;;;;;;;;;;5072656;28;20028;-43
2022/02/20 03:15:21;;;;;;;1.40;0.35;;;;;;;;;;5072369;28;20033;-43
2022/02/20 03:17:47;;;;;;;1.05;0.43;;;;;;;;;;5072467;28;20060;-43
2022/02/20 03:20:13;;;;;;;2.58;0.68;;;;;;;;;;5072375;28;20083;-43
2022/02/20 03:22:39;;;;;;;1.85;0.35;;;;;;;;;;5072474;28;20032;-43
2022/02/20 03:25:06;;;;;;;0.63;0.40;;;15.10;81.00;;;;;;5072268;28;20033;-44
2022/02/20 03:27:32;;;;;;;1.30;0.40;;;;;;;;;;5072491;28;20113;-44
2022/02/20 03:29:58;;;;;;;2.03;0.60;;;;;;;;;;5072137;28;20035;-43
2022/02/20 03:32:24;;;;;;;1.52;0.35;;;;;;;;;;5072200;28;20483;-43
2022/02/20 03:34:50;;;;;;;0.40;0.22;;;;;;;;;;5072014;28;20437;-43
2022/02/20 03:37:17;;;;;;;1.95;0.50;;;15.10;82.90;;;;;;5072294;28;20075;-43
2022/02/20 03:39:43;;;;;;;1.02;0.70;;;;;;;;;;5072190;28;20056;-43
2022/02/20 03:42:09;;;;;;;1.17;0.40;;;;;;;;;;5072169;28;20510;-43
2022/02/20 03:44:35;;;;;;;2.25;0.65;;;;;;;;;;5072101;28;20032;-43
2022/02/20 03:47:01;;;;;;;1.45;0.52;;;;;;;;;;5072093;28;20066;-43
2022/02/20 03:49:27;;;;;;;1.08;0.40;;;;;;;;;;5072122;28;20577;-43
2022/02/20 03:51:53;;;;;;;1.60;0.40;;;;;;;;;;5072053;28;20040;-43
2022/02/20 03:54:19;;;;;;;1.85;0.30;;;;;;;;;;5072264;28;20021;-43
2022/02/20 03:56:45;;;;;;;2.58;0.80;;;;;;;;;;5071952;28;20036;-43
2022/02/20 03:59:11;;;;;;;1.08;0.40;;;;;;;;;;5072079;28;20020;-44
2022/02/20 04:01:37;;;;;;;1.70;0.50;;;;;;;;;;5071921;28;20498;-43
2022/02/20 04:04:03;;;;;;;1.73;0.50;;;;;;;;;;5071729;28;20395;-43
2022/02/20 04:06:29;;;;;;;1.05;0.40;;;;;;;;;;5071869;28;20154;-44
2022/02/20 04:08:55;;;;;;;1.40;0.68;;;;;;;;;;5072109;28;20059;-43
2022/02/20 04:11:21;;;;;;;1.60;0.65;;;;;;;;;;5071790;28;20025;-43
2022/02/20 04:13:47;;;;;;;0.80;0.43;;;;;;;;;;5071814;28;20024;-43
2022/02/20 04:16:13;;;;;;;1.33;0.82;;;;;;;;;;5071699;28;20406;-43
2022/02/20 04:18:39;;;;;;;1.38;0.40;;;;;;;;;;5071950;28;20033;-43
2022/02/20 04:21:05;;;;;;;0.95;0.43;;;;;;;;;;5072025;28;20028;-43
2022/02/20 04:23:31;;;;;;;1.63;0.52;;;;;;;;;;5072000;28;20099;-43
2022/02/20 04:26:01;;;;;;;2.75;0.50;;;;;;;;;;5071702;28;20040;-43
2022/02/20 04:28:32;;;;;;;1.15;0.63;;;14.90;82.80;;;;;;5071701;28;20016;-43
2022/02/20 04:30:58;;;;;;;1.88;0.63;;;;;;;;;;5072019;28;20032;-43
2022/02/20 04:33:24;;;;;;;1.63;0.40;;;;;;;;;;5071682;28;20063;-43
2022/02/20 04:35:50;;;;;;;0.75;0.50;;;;;;;;;;5071733;28;20124;-43
2022/02/20 04:38:16;;;;;;;4.07;0.88;;;;;;;;;;5071611;28;20107;-43
2022/02/20 04:40:42;;;;;;;2.53;0.52;;;;;;;;;;5071662;28;20055;-43
2022/02/20 04:43:08;;;;;;;1.02;0.60;;;;;;;;;;5071594;28;20025;-43
2022/02/20 04:45:34;;;;;;;2.10;0.40;;;;;;;;;;5072438;28;20036;-43
2022/02/20 04:47:59;;;;;;;2.05;0.65;;;;;;;;;;5075190;28;20024;-43
2022/02/20 04:50:25;;;;;;;2.55;0.68;;;;;;;;;;5075049;28;20032;-43
2022/02/20 04:52:51;;;;;;;3.13;1.20;;;;;;;;;;5075096;28;20024;-43
2022/02/20 04:55:17;;;;;;;1.40;0.50;;;;;;;;;;5075213;28;20028;-43
2022/02/20 04:57:43;;;;;;;1.20;0.47;;;;;;;;;;5075024;28;20117;-43
2022/02/20 05:00:11;;;;;;;2.08;0.50;;;14.80;82.80;;;;;;5074931;28;20151;-43
2022/02/20 05:02:37;;;;;;;0.80;0.40;;;;;;;;;;5074904;28;20076;-43
2022/02/20 05:05:04;;;;;;;2.13;0.70;;;;;;;;;;5075096;28;20048;-43
2022/02/20 05:07:30;;;;;;;2.20;0.50;;;;;;;;;;5075040;28;20062;-44
2022/02/20 05:09:57;;;;;;;1.20;0.55;;;;;;;;;;5074984;28;20029;-43
2022/02/20 05:12:23;;;;;;;0.65;0.40;;;;;;;;;;5074747;28;20501;-43
2022/02/20 05:14:49;;;;;;;2.50;0.50;;;;;;;;;;5075039;28;20021;-43
2022/02/20 05:17:16;;;;;;;1.88;0.40;;;;;;;;;;5074604;28;20045;-43
2022/02/20 05:19:42;;;;;;;1.85;0.70;;;;;;;;;;5074837;28;20020;-43
2022/02/20 05:22:08;;;;;;;3.45;1.10;;;;;;;;;;5074592;28;20368;-43
2022/02/20 05:24:33;;;;;;;2.38;0.50;;;;;;;;;;5074555;28;20028;-43
2022/02/20 05:26:59;;;;;;;0.55;0.40;;;;;;;;;;5074466;28;20036;-44
2022/02/20 05:29:25;;;;;;;1.83;0.70;;;;;;;;;;5074402;28;20032;-43
2022/02/20 05:31:51;;;;;;;1.00;0.55;;;;;;;;;;5074514;28;20020;-50
2022/02/20 05:34:17;;;;;;;1.10;0.60;;;;;;;;;;5074598;28;20029;-48
2022/02/20 05:36:43;;;;;;;2.28;0.82;;;;;;;;;;5074174;28;20040;-49
2022/02/20 05:39:09;;;;;;;3.85;1.13;;;;;;;;;;5074208;28;20099;-48
2022/02/20 05:41:35;;;;;;;1.77;0.70;;;;;;;;;;5074193;28;20036;-48
2022/02/20 05:44:01;;;;;;;1.70;0.63;;;;;;;;;;5074161;28;20024;-48
2022/02/20 05:46:27;;;;;;;1.65;0.50;;;;;;;;;;5074040;28;20039;-48
2022/02/20 05:48:53;;;;;;;2.33;0.65;;;;;;;;;;5074095;28;20021;-47
2022/02/20 05:51:19;;;;;;;1.25;0.50;;;;;;;;;;5074019;28;20028;-48
2022/02/20 05:53:45;;;;;;;2.17;0.80;;;;;;;;;;5073914;28;20056;-48
2022/02/20 05:56:11;;;;;;;2.15;0.60;;;;;;;;;;5074013;28;20051;-47
2022/02/20 05:58:37;;;;;;;3.08;0.80;;;;;;;;;;5073809;28;20040;-48
2022/02/20 06:01:03;;;;;;;0.90;0.80;;;;;;;;;;5073768;28;20028;-48
2022/02/20 06:03:29;;;;;;;2.05;1.35;;;;;;;;;;5073479;28;20093;-48
2022/02/20 06:05:55;;;;;;;1.23;0.52;;;;;;;;;;5073733;28;20483;-48
2022/02/20 06:08:21;;;;;;;1.75;1.00;;;;;;;;;;5073726;28;20032;-48
2022/02/20 06:10:47;;;;;;;2.70;0.93;;;;;;;;;;5073788;28;20363;-48
2022/02/20 06:13:13;;;;;;;1.70;0.50;;;;;;;;;;5073564;28;20039;-48
2022/02/20 06:15:39;;;;;;;3.22;0.70;;;;;;;;;;5073652;28;20033;-48
2022/02/20 06:18:05;;;;;;;2.42;0.85;;;;;;;;;;5073402;28;20032;-49
2022/02/20 06:20:31;;;;;;;1.48;0.43;;;;;;;;;;5073378;28;20032;-48
2022/02/20 06:22:57;;;;;;;1.52;0.73;;;;;;;;;;5073295;28;20031;-48
2022/02/20 06:25:23;;;;;;;1.20;0.50;;;15.20;83.40;;;;;;5073647;28;20027;-48
2022/02/20 06:27:49;;;;;;;2.72;0.70;;;;;;;;;;5073472;28;20020;-48
2022/02/20 06:30:16;;;;;;;2.30;1.25;;;;;;;;;;5055337;28;20435;-48
2022/02/20 06:32:42;;;;;;;3.75;0.93;;;;;;;;;;5073344;28;20386;-47
2022/02/20 06:35:08;;;;;;;1.98;0.90;;;;;;;;;;5073017;28;20029;-48
2022/02/20 06:37:34;;;;;;;2.63;0.52;;;;;;;;;;5073086;28;20036;-48
2022/02/20 06:39:59;;;;;;;1.58;0.47;;;;;;;;;;5072984;28;20028;-48
2022/02/20 06:42:25;;;;;;;1.88;0.55;;;;;;;;;;5072954;28;20028;-48
2022/02/20 06:44:51;;;;;;;1.08;0.47;;;;;;;;;;5072904;28;20054;-48
2022/02/20 06:47:17;;;;;;;1.83;0.43;;;;;;;;;;5072945;28;20024;-44
2022/02/20 06:49:43;;;;;;;2.25;0.50;;;;;;;;;;5072751;28;20035;-43
2022/02/20 06:52:09;;;;;;;1.25;0.95;;;;;;;;;;5072948;28;20076;-43
2022/02/20 06:54:35;;;;;;;1.45;0.47;;;;;;;;;;5072778;28;20029;-44
2022/02/20 06:57:01;;;;;;;2.40;0.70;;;;;;;;;;5072548;28;20486;-43
2022/02/20 06:59:27;;;;;;;1.27;0.57;;;;;;;;;;5072644;28;20024;-44
2022/02/20 07:01:53;;;;;;;1.13;0.55;;;;;;;;;;5072597;28;20056;-43
2022/02/20 07:04:19;;;;;;;1.02;0.60;;;;;;;;;;5072717;28;20021;-43
2022/02/20 07:06:46;;;;;;;2.85;0.80;;;;;;;;;;5072730;28;20104;-44
2022/02/20 07:09:13;;;;;;;1.98;0.52;;;16.10;80.50;;;;;;5072085;28;20043;-43
2022/02/20 07:11:40;;;;;;;1.27;0.60;;;16.00;82.30;;;;;;5072694;28;20352;-43
2022/02/20 07:14:06;;;;;;;1.70;0.68;;;;;;;;;;5072396;28;20029;-43
2022/02/20 07:16:33;;;;;;;2.22;0.82;;;16.10;84.00;;;;;;5072378;28;20061;-43
2022/02/20 07:18:59;;;;;;;2.35;0.50;;;;;;;;;;5072354;28;20024;-43
2022/02/20 07:21:25;;;;;;;2.90;0.57;;;;;;;;;;5072486;28;20078;-43
2022/02/20 07:23:52;;;;;;;1.02;0.63;;;16.10;82.60;;;;;;5072340;28;20078;-48
2022/02/20 07:26:18;;;;;;;2.05;0.70;;;;;;;;;;5072295;28;20491;-48
2022/02/20 07:28:44;;;;;;;1.77;0.60;;;;;;;;;;5072250;28;20483;-47
2022/02/20 07:31:10;;;;;;;2.75;0.80;;;;;;;;;;5072451;28;20027;-48
2022/02/20 07:33:36;;;;;;;2.30;0.60;;;;;;;;;;5072205;28;20546;-47
2022/02/20 07:36:02;;;;;;;4.03;1.27;;;;;;;;;;5072018;28;20032;-47
2022/02/20 07:38:28;;;;;;;4.72;1.08;;;;;;;;;;5072177;28;20548;-50
2022/02/20 07:40:54;;;;;;;3.65;1.45;;;;;;;;;;5072432;28;20025;-51
2022/02/20 07:43:21;;;;;;;3.40;1.40;;;;;;;;;;5072345;28;20032;-51
2022/02/20 07:45:47;;;;;;;3.85;1.13;;;;;;;;;;5072333;28;20043;-51
2022/02/20 07:48:14;;;;;;;5.25;1.42;;;;;;;;;;5072045;28;20028;-49
2022/02/20 07:50:42;;;;;;;3.55;0.85;;;;;;;;;;5072026;28;20033;-50
2022/02/20 07:53:08;;;;;;;6.72;1.30;;;;;;;;;;5072128;28;20031;-51
2022/02/20 07:55:34;;;;;;;7.05;1.27;;;16.20;80.20;;;;;;5071957;28;20043;-50
2022/02/20 07:58:01;;;;;;;11.30;1.13;;;16.10;83.40;;;;;;5072055;28;20029;-50
2022/02/20 08:00:30;;;;;;;3.78;0.98;;;;;;;;;;5072110;28;20024;-49
2022/02/20 08:02:57;;;;;;;6.20;1.60;;;16.10;79.80;;;;;;5071830;28;20049;-49
2022/02/20 08:05:23;;;;;;;3.13;1.30;;;;;;;;;;5071895;28;20024;-49
2022/02/20 08:07:49;;;;;;;5.80;1.50;;;;;;;;;;5071925;28;20082;-50
2022/02/20 08:10:15;;;;;;;9.50;1.63;;;;;;;;;;5071865;28;20028;-50
2022/02/20 08:12:41;;;;;;;6.25;2.00;;;;;;;;;;5071913;28;20051;-50
2022/02/20 08:15:07;;;;;;;4.38;1.13;;;;;;;;;;5071843;28;20074;-49
2022/02/20 08:17:33;;;;;;;5.97;1.35;;;;;;;;;;5072413;28;20418;-49
2022/02/20 08:19:59;;;;;;;4.25;1.23;;;;;;;;;;5071887;28;20047;-49
2022/02/20 08:22:25;;;;;;;5.57;1.67;;;;;;;;;;5075655;28;20451;-49
2022/02/20 08:24:51;;;;;;;4.65;1.63;;;;;;;;;;5075894;28;20056;-50
2022/02/20 08:27:17;;;;;;;6.25;1.83;;;;;;;;;;5075743;28;20378;-49
2022/02/20 08:29:43;;;;;;;7.03;1.90;;;;;;;;;;5075728;28;20421;-49
2022/02/20 08:32:09;;;;;;;5.85;1.58;;;;;;;;;;5075445;28;20108;-51
2022/02/20 08:34:35;;;;;;;5.13;1.55;;;15.80;84.10;;;;;;5075544;28;20131;-49
2022/02/20 08:37:02;;;;;;;6.10;1.88;;;;;;;;;;5075412;28;20044;-50
2022/02/20 08:39:28;;;;;;;4.20;1.55;;;;;;;;;;5075343;28;20104;-51
2022/02/20 08:41:55;;;;;;;5.35;1.83;;;;;;;;;;5075306;28;20032;-49
2022/02/20 08:44:21;;;;;;;13.00;2.70;;;;;;;;;;5075483;28;20048;-49
2022/02/20 08:46:47;;;;;;;8.68;2.35;;;;;;;;;;5075221;28;20113;-51
2022/02/20 08:49:13;;;;;;;7.18;1.85;;;;;;;;;;5075203;28;20060;-50
2022/02/20 08:51:39;;;;;;;11.52;2.33;;;;;;;;;;5075450;28;20033;-51
2022/02/20 08:54:05;;;;;;;11.35;2.22;;;;;;;;;;5075124;28;20042;-50
2022/02/20 08:56:32;;;;;;;11.75;2.92;;;;;;;;;;5074933;28;20037;-50
2022/02/20 08:58:59;;;;;;;7.53;2.28;;;15.90;84.20;;;;;;5074983;28;20032;-50
2022/02/20 09:01:27;;;;;;;9.02;2.33;;;;;;;;;;5075082;28;20063;-51
2022/02/20 09:04:02;;;;;;;8.65;2.30;;;;;;;;;;5074735;28;20039;-50
2022/02/20 09:06:28;;;;;;;15.32;2.45;;;;;;;;;;5075083;28;20029;-50
2022/02/20 09:08:54;;;;;;;9.18;2.15;;;;;;;;;;5074807;28;20040;-53
2022/02/20 09:11:20;;;;;;;8.40;1.80;;;;;;;;;;5074826;28;20502;-50
2022/02/20 09:13:46;;;;;;;11.27;2.55;;;;;;;;;;5074992;28;20036;-51
2022/02/20 09:16:12;;;;;;;9.20;2.15;;;;;;;;;;5074636;28;20036;-50
2022/02/20 09:18:38;;;;;;;8.60;1.92;;;;;;;;;;5074549;28;20030;-50
2022/02/20 09:21:04;;;;;;;8.45;2.47;;;;;;;;;;5074608;28;20533;-51
2022/02/20 09:23:30;;;;;;;8.02;2.10;;;;;;;;;;5074746;28;20024;-50
2022/02/20 09:25:56;;;;;;;10.25;2.58;;;;;;;;;;5074506;28;20429;-50
2022/02/20 09:28:22;;;;;;;9.98;2.03;;;;;;;;;;5074476;28;20029;-50
2022/02/20 09:30:48;;;;;;;6.90;2.30;;;;;;;;;;5074355;28;20475;-50
2022/02/20 09:33:15;;;;;;;9.20;2.20;;;;;;;;;;5074223;28;20085;-51
2022/02/20 09:35:41;;;;;;;8.20;2.17;;;;;;;;;;5074207;28;20491;-51
2022/02/20 09:38:07;;;;;;;7.18;2.10;;;;;;;;;;5074524;28;20086;-50
2022/02/20 09:40:33;;;;;;;7.60;2.58;;;;;;;;;;5074176;28;20392;-49
2022/02/20 09:43:00;;;;;;;9.25;2.55;;;;;;;;;;5074144;28;20027;-49
2022/02/20 09:45:26;;;;;;;9.20;2.53;;;;;;;;;;5074079;28;20033;-49
2022/02/20 09:47:52;;;;;;;6.97;2.55;;;;;;;;;;5074121;28;20031;-51
2022/02/20 09:50:18;;;;;;;8.98;2.60;;;;;;;;;;5074017;28;20104;-50
2022/02/20 09:52:44;;;;;;;10.05;2.55;;;;;;;;;;5073882;28;20025;-51
2022/02/20 09:55:10;;;;;;;11.18;2.78;;;;;;;;;;5073880;28;20036;-50
2022/02/20 09:57:36;;;;;;;8.60;2.47;;;;;;;;;;5073589;28;20076;-50
2022/02/20 10:00:05;;;;;;;10.52;2.42;;;17.20;81.90;;;;;;5073730;28;20032;-51
2022/02/20 10:02:40;;;;;;;9.38;2.70;;;17.20;76.20;;;;;;5073331;28;20044;-49
2022/02/20 10:05:08;;;;;;;12.25;2.80;;;;;;;;;;5073719;28;20028;-48
2022/02/20 10:07:34;;;;;;;9.02;2.72;;;;;;;;;;5073660;28;20075;-49
2022/02/20 10:10:14;;;;;;;9.02;2.60;;;17.10;81.60;;;;;;5073628;28;20458;-50
2022/02/20 10:12:40;;;;;;;;;;;17.40;76.60;;;;;;5073994;28;20024;-50
2022/02/20 10:15:32;;;;;;;9.55;2.38;;;17.40;75.90;;;;;;5073541;28;19914;-48
2022/02/20 10:18:08;;;;;;;10.35;2.78;;;17.40;81.40;;;;;;5073390;28;20555;-48
2022/02/20 10:20:34;;;;;;;11.48;2.80;;;;;;;;;;5073407;28;20254;-48
2022/02/20 10:23:05;;;;;;;11.10;2.78;;;17.40;81.30;;;;;;5073353;28;20330;-47
2022/02/20 10:25:31;;;;;;;11.85;3.03;;;;;;;;;;5073405;28;20387;-47
2022/02/20 10:27:57;;;;;;;9.60;2.50;;;;;;;;;;5073264;28;20116;-48
2022/02/20 10:30:27;;;;;;;10.82;2.53;;;17.30;75.70;;;;;;5073069;28;20060;-50
2022/02/20 10:33:05;;;;;;;11.25;3.00;;;17.40;75.60;;;;;;5072878;28;20371;-50
2022/02/20 10:35:35;;;;;;;10.90;2.58;;;17.40;75.70;;;;;;5073069;28;20487;-48
2022/02/20 10:38:11;;;;;;;;;;;17.70;82.40;;;;;;5073453;28;20025;-48
2022/02/20 10:40:38;;;;;;;16.02;3.92;;;17.60;81.20;;;;;;5072896;28;19954;-48
2022/02/20 10:43:05;;;;;;;9.75;2.40;;;17.60;81.10;;;;;;5072211;28;20032;-48
2022/02/20 10:45:34;;;;;;;10.02;3.10;;;;;;;;;;5072885;28;20386;-45
2022/02/20 10:48:01;;;;;;;11.48;3.22;;;17.70;81.00;;;;;;5072876;28;20170;-44
2022/02/20 10:50:30;;;;;;;11.82;2.88;;;17.80;81.00;;;;;;5072761;28;20029;-46
2022/02/20 10:53:12;;;;;;;7.97;2.50;;;17.90;75.10;;;;;;5072654;28;20033;-45
2022/02/20 10:55:41;;;;;;;10.65;2.70;;;17.90;81.00;;;;;;5072715;28;20059;-45
2022/02/20 10:58:24;;;;;;;9.90;2.78;;;17.90;74.90;;;;;;5073049;28;20035;-44
2022/02/20 11:00:53;;;;;;;9.55;2.38;;;18.00;80.60;;;;;;5072783;28;20052;-44
2022/02/20 11:03:21;;;;;;;8.65;2.90;;;18.00;80.60;;;;;;5072548;28;20591;-45
2022/02/20 11:05:47;;;;;;;10.75;3.08;;;;;;;;;;5072563;28;20382;-46
2022/02/20 11:08:13;;;;;;;10.18;2.80;;;18.20;78.00;;;;;;5072636;28;20171;-46
2022/02/20 11:10:40;;;;;;;15.20;3.15;;;18.40;79.10;;;;;;5072664;28;20060;-47
2022/02/20 11:13:09;;;;;;;9.68;3.05;;;18.20;80.70;;;;;;5072508;28;20039;-46
2022/02/20 11:15:35;;;;;;;13.80;3.90;;;;;;;;;;5072478;28;20082;-46
2022/02/20 11:18:03;;;;;;;11.70;2.95;;;18.60;80.60;;;;;;5072204;28;20040;-47
2022/02/20 11:20:30;;;;;;;9.75;2.90;;;18.40;78.40;;;;;;5072305;28;20035;-45
2022/02/20 11:23:00;;;;;;;15.90;2.83;;;18.30;80.90;;;;;;5072193;28;20024;-46
2022/02/20 11:25:26;;;;;;;10.00;2.72;;;18.50;78.30;;;;;;5072146;28;20215;-46
2022/02/20 11:27:56;;;;;;;11.27;3.22;;;18.50;79.90;;;;;;5072212;28;20052;-47
2022/02/20 11:30:22;;;;;;;10.93;3.05;;;;;;;;;;5072222;28;20043;-46
2022/02/20 11:32:48;;;;;;;11.52;2.95;;;;;;;;;;5072110;28;20036;-46
2022/02/20 11:35:15;;;;;;;15.23;3.03;;;;;;;;;;5072112;28;20085;-46
2022/02/20 11:37:46;;;;;;;10.82;2.80;;;18.50;74.80;;;;;;5071905;28;20458;-46
2022/02/20 11:40:14;;;;;;;10.30;2.60;;;;;;;;;;5072187;28;20440;-46
2022/02/20 11:43:00;;;;;;;9.20;2.85;;;18.50;80.60;;;;;;5072144;28;20471;-48
2022/02/20 11:45:28;;;;;;;10.38;2.83;;;18.50;80.50;;;;;;5071899;28;20033;-46
2022/02/20 11:48:06;;;;;;;10.43;2.92;;;18.70;74.90;;;;;;5071920;28;20021;-45
2022/02/20 11:50:33;;;;;;;10.13;2.90;;;;;;;;;;5071833;28;20025;-44
2022/02/20 11:53:02;;;;;;;10.07;2.45;;;18.60;80.50;;;;;;5072162;28;20017;-43
2022/02/20 11:55:31;;;;;;;15.63;3.53;;;18.50;80.50;;;;;;5074457;28;20429;-44
2022/02/20 11:58:13;;;;;;;9.30;2.70;;;18.50;75.20;;;;;;5076047;28;20032;-46
2022/02/20 12:00:59;;;;;;;11.02;2.90;;;18.40;80.60;;;;;;5075929;28;20104;-44
2022/02/20 12:03:31;;;;;;;12.65;3.53;;;18.40;75.00;;;;;;5065350;28;20068;-47
2022/02/20 12:06:17;;;;;;;8.02;2.47;;;18.30;75.30;;;;;;5075763;28;20021;-44
2022/02/20 12:08:50;;;;;;;11.07;3.28;;;18.30;75.10;;;;;;5075748;28;20104;-47
2022/02/20 12:11:16;;;;;;;9.48;3.13;;;;;;;;;;5057996;28;20367;-46
2022/02/20 12:13:54;;;;;;;11.32;3.17;;;18.30;75.40;;;;;;5076154;28;20410;-46
2022/02/20 12:16:20;;;;;;;12.40;3.00;;;;;;;;;;5075831;28;20120;-49
2022/02/20 12:19:04;;;;;;;10.57;3.13;;;18.30;75.60;;;;;;5075622;28;20056;-47
2022/02/20 12:21:31;;;;;;;12.85;3.15;;;18.30;81.40;;;;;;5075693;28;20509;-46
2022/02/20 12:23:59;;;;;;;7.95;3.05;;;;;;;;;;5075674;28;20093;-46
2022/02/20 12:26:49;;;;;;;9.40;2.92;;;18.30;75.70;;;;;;5075590;28;20056;-46
2022/02/20 12:29:17;;;;;;;9.93;3.25;;;18.20;81.50;;;;;;5075500;28;20527;-46
2022/02/20 12:32:12;;;;;;;8.63;3.00;;;18.30;75.60;;;;;;5075517;28;20029;-46
2022/02/20 12:34:47;;;;;;;14.57;3.80;;;18.30;75.70;;;;;;5073686;28;20074;-43
2022/02/20 12:37:13;;;;;;;9.07;3.00;;;18.30;79.80;;;;;;5075267;28;20079;-43
2022/02/20 12:39:40;;;;;;;9.55;2.75;;;;;;;;;;5075377;28;20028;-45
2022/02/20 12:42:06;;;;;;;10.73;3.55;;;;;;;;;;5075353;28;20064;-44
2022/02/20 12:44:32;;;;;;;11.77;3.53;;;;;;;;;;5075569;28;20033;-43
2022/02/20 12:47:01;;;;;;;12.85;3.67;;;18.30;79.40;;;;;;5075246;28;20036;-43
2022/02/20 12:49:29;;;;;;;12.57;2.97;;;;;;;;;;5075180;28;20483;-46
2022/02/20 12:52:21;;;;;;;13.27;3.45;;;18.20;75.50;;;;;;5075392;28;20025;-45
2022/02/20 12:54:54;;;;;;;11.50;2.90;;;18.20;81.60;;;;;;5072088;28;20072;-48
2022/02/20 12:57:20;;;;;;;11.02;3.25;;;;;;;;;;5075083;28;20123;-47
2022/02/20 12:59:57;;;;;;;12.40;3.60;;;18.20;75.80;;;;;;5074789;28;20110;-50
2022/02/20 13:02:34;;;;;;;13.73;2.63;;;18.10;75.70;;;;;;5074793;28;20072;-50
2022/02/20 13:05:16;;;;;;;11.45;3.25;;;18.20;75.90;;;;;;5074897;28;20391;-48
2022/02/20 13:07:48;;;;;;;12.88;3.60;;;18.10;76.00;;;;;;5073880;28;20436;-48
2022/02/20 13:10:16;;;;;;;9.57;2.85;;;17.80;81.70;;;;;;5074569;28;20028;-49
2022/02/20 13:12:54;;;;;;;10.25;3.45;;;18.30;82.20;;;;;;5074599;28;20088;-47
2022/02/20 13:15:20;;;;;;;9.52;3.13;;;;;;;;;;5074507;28;20077;-47
2022/02/20 13:17:57;;;;;;;9.30;2.75;;;18.20;76.20;;;;;;5074467;28;20563;-51
2022/02/20 13:20:28;;;;;;;8.20;2.65;;;18.10;76.10;;;;;;5074910;28;20031;-48
2022/02/20 13:22:54;;;;;;;8.50;2.80;;;;;;;;;;5074377;28;20077;-48
2022/02/20 13:25:20;;;;;;;11.20;3.22;;;;;;;;;;5074340;28;20480;-48
2022/02/20 13:27:46;;;;;;;11.02;2.95;;;;;;;;;;5074641;28;20024;-50
2022/02/20 13:30:25;;;;;;;10.80;3.13;;;18.20;82.10;;;;;;5074535;28;20032;-50
2022/02/20 13:32:51;;;;;;;12.00;3.13;;;;;;;;;;5074503;28;20077;-49
2022/02/20 13:35:29;;;;;;;8.68;2.80;;;18.10;82.20;;;;;;5074409;28;20032;-48
2022/02/20 13:37:56;;;;;;;10.55;2.90;;;;;;;;;;5074674;28;20119;-52
2022/02/20 13:40:21;;;;;;;9.07;2.80;;;;;;;;;;5074274;28;20020;-48
2022/02/20 13:43:07;;;;;;;10.93;2.92;;;18.00;76.40;;;;;;5074234;28;20035;-49
2022/02/20 13:45:34;;;;;;;12.20;3.78;;;;;;;;;;5074232;28;20491;-50
2022/02/20 13:48:00;;;;;;;12.20;3.30;;;;;;;;;;5074456;28;20032;-51
2022/02/20 13:50:26;;;;;;;9.60;2.78;;;;;;;;;;5074081;28;20035;-48
2022/02/20 13:52:52;;;;;;;12.82;3.38;;;;;;;;;;5074262;28;20380;-48
2022/02/20 13:55:27;;;;;;;10.68;3.05;;;18.00;76.50;;;;;;5073996;28;20029;-48
2022/02/20 13:57:56;;;;;;;10.80;3.00;;;18.00;76.60;;;;;;5074216;28;20112;-51
2022/02/20 14:00:23;;;;;;;9.35;3.50;;;18.00;79.90;;;;;;5073912;28;20025;-50
2022/02/20 14:02:49;;;;;;;9.77;2.83;;;;;;;;;;5073537;28;20128;-47
2022/02/20 14:05:27;;;;;;;8.93;2.42;;;17.90;82.40;;;;;;5073829;28;20031;-50
2022/02/20 14:08:06;;;;;;;9.82;2.83;;;17.90;82.50;;;;;;5074101;28;20104;-49
2022/02/20 14:10:32;;;;;;;8.45;3.08;;;;;;;;;;5073745;28;20107;-48